Thunder radar more information blitzortung!


Radar de pluja more information rain snow radar


Visita la nostra xarxa de llocs de meteo:

Template documentation
and downloads

And another site



No particular awareness of the weather is required.    There are no Weather-warnings

Pagina Historial Weather Underground text

Diari Resum Setembre 8, 2017 Unitats:  Mètric    Imperial   Tant
« Previous Dia
SegĂźent Dia »
Diari Setmana Mensual Anual Personalitzada
  Maxima: Minima: Media:
Temperatura: 25.8 °C 16.3 °C 21.9 °C
Punt de rosada: 16.2 °C 11.6 °C 13.2 °C
Humitat: 77 % 44 % 59 %
Wind Speed: 20.6 km/h 0.0 km/h 7.3 km/h
RĂ fegues de vent: 20.6 km/h - -
Vent:- - SE
Pression baro: 1014.8 hPa 1005.0 hPa -
Precipitacions: 0.0 mm    
Historical Graphs
 
 
Dades de taula per Setembre 8, 2017
Temps Temperatura Punt de rosada Pression baro Vent Wind Speed RĂ fegues de vent Humitat Rainfall Rate (Hourly)
00:01 19.8 °C 13.1 °C 1014.8 hPa West 3.7 km/h 3.7 km/h 65 % 0.0 mm
00:06 19.7 °C 12.9 °C 1014.8 hPa West 2.3 km/h 2.3 km/h 65 % 0.0 mm
10:29 16.3 °C 12.3 °C 1013.8 hPa West 1.9 km/h   77 % 0.0 mm
10:30 16.3 °C 12.3 °C 1013.8 hPa West 1.9 km/h   77 % 0.0 mm
10:31 16.3 °C 12.3 °C 1013.8 hPa West 1.9 km/h   77 % 0.0 mm
10:36 19.2 °C 13.4 °C 1014.8 hPa West 2.3 km/h   69 % 0.0 mm
10:41 19.4 °C 13.6 °C 1014.8 hPa SSE 3.7 km/h 3.7 km/h 69 % 0.0 mm
10:46 19.5 °C 13.4 °C 1014.8 hPa Calm     68 % 0.0 mm
10:51 20.0 °C 13.7 °C 1014.8 hPa ENE 5.6 km/h 5.6 km/h 67 % 0.0 mm
10:56 20.1 °C 13.6 °C 1014.8 hPa NE 5.6 km/h 5.6 km/h 66 % 0.0 mm
11:01 20.4 °C 13.8 °C 1014.8 hPa ENE 5.6 km/h 5.6 km/h 66 % 0.0 mm
11:06 20.4 °C 13.8 °C 1014.8 hPa East 5.6 km/h 5.6 km/h 66 % 0.0 mm
11:11 20.8 °C 14.2 °C 1014.8 hPa NE 5.6 km/h 5.6 km/h 66 % 0.0 mm
11:16 20.8 °C 14.2 °C 1014.8 hPa ENE 5.6 km/h 5.6 km/h 66 % 0.0 mm
11:21 21.1 °C 14.5 °C 1014.8 hPa ENE 5.6 km/h 5.6 km/h 66 % 0.0 mm
11:26 21.5 °C 14.9 °C 1014.8 hPa NW 3.7 km/h 3.7 km/h 66 % 0.0 mm
11:31 21.7 °C 14.8 °C 1014.8 hPa ENE 5.6 km/h 5.6 km/h 65 % 0.0 mm
11:36 22.1 °C 14.9 °C 1014.8 hPa ENE 9.7 km/h 9.7 km/h 64 % 0.0 mm
11:41 22.2 °C 15.1 °C 1014.8 hPa NNE 9.3 km/h 9.3 km/h 64 % 0.0 mm
11:46 22.1 °C 14.9 °C 1014.8 hPa SW 9.3 km/h 9.3 km/h 64 % 0.0 mm
11:51 22.5 °C 15.3 °C 1014.8 hPa NNE 11.1 km/h 11.1 km/h 64 % 0.0 mm
11:56 22.6 °C 15.4 °C 1014.8 hPa NE 9.0 km/h 9.0 km/h 64 % 0.0 mm
12:01 22.7 °C 15.1 °C 1014.8 hPa SSE 9.3 km/h 9.3 km/h 62 % 0.0 mm
12:06 23.2 °C 15.5 °C 1014.8 hPa NNE 6.1 km/h 6.1 km/h 62 % 0.0 mm
12:11 23.0 °C 15.3 °C 1013.8 hPa SW 4.2 km/h 4.2 km/h 62 % 0.0 mm
12:16 23.9 °C 16.2 °C 1013.8 hPa WNW 3.7 km/h 3.7 km/h 62 % 0.0 mm
12:21 23.7 °C 15.7 °C 1013.8 hPa East 7.9 km/h 7.9 km/h 61 % 0.0 mm
12:26 23.1 °C 15.4 °C 1013.8 hPa ESE 9.3 km/h 9.3 km/h 62 % 0.0 mm
12:31 22.9 °C 15.2 °C 1013.8 hPa East 11.1 km/h 11.1 km/h 62 % 0.0 mm
12:36 23.0 °C 15.1 °C 1013.8 hPa SE 9.3 km/h 9.3 km/h 61 % 0.0 mm
12:41 23.4 °C 15.7 °C 1013.8 hPa SSE 9.7 km/h 9.7 km/h 62 % 0.0 mm
12:46 23.4 °C 15.4 °C 1013.8 hPa South 9.3 km/h 9.3 km/h 61 % 0.0 mm
12:51 23.2 °C 15.5 °C 1013.8 hPa ESE 11.1 km/h 11.1 km/h 62 % 0.0 mm
12:56 23.2 °C 15.5 °C 1012.8 hPa East 7.4 km/h 7.4 km/h 62 % 0.0 mm
13:01 23.6 °C 16.2 °C 1012.8 hPa SE 7.4 km/h 7.6 km/h 63 % 0.0 mm
13:06 23.8 °C 16.1 °C 1013.8 hPa ESE 11.1 km/h 11.1 km/h 62 % 0.0 mm
13:11 23.5 °C 15.6 °C 1013.8 hPa East 13.0 km/h 13.0 km/h 61 % 0.0 mm
13:16 23.6 °C 15.6 °C 1013.8 hPa ESE 9.3 km/h 9.3 km/h 61 % 0.0 mm
13:21 23.6 °C 15.6 °C 1013.8 hPa SSE 9.3 km/h 9.3 km/h 61 % 0.0 mm
13:26 23.5 °C 15.8 °C 1013.8 hPa WSW 11.1 km/h 11.1 km/h 62 % 0.0 mm
13:31 23.3 °C 15.6 °C 1013.8 hPa South 14.8 km/h 14.8 km/h 62 % 0.0 mm
13:36 23.4 °C 15.7 °C 1013.8 hPa ESE 14.8 km/h 14.8 km/h 62 % 0.0 mm
13:41 23.4 °C 15.4 °C 1013.8 hPa East 16.7 km/h 16.7 km/h 61 % 0.0 mm
13:46 23.4 °C 15.4 °C 1013.8 hPa East 7.9 km/h 7.9 km/h 61 % 0.0 mm
13:51 23.6 °C 15.6 °C 1012.8 hPa East 9.5 km/h 9.5 km/h 61 % 0.0 mm
13:56 23.6 °C 15.6 °C 1012.8 hPa South 13.0 km/h 13.0 km/h 61 % 0.0 mm
14:01 23.8 °C 15.8 °C 1012.8 hPa SSW 11.1 km/h 11.1 km/h 61 % 0.0 mm
14:06 23.6 °C 15.6 °C 1012.8 hPa ENE 13.0 km/h 13.0 km/h 61 % 0.0 mm
14:11 23.4 °C 15.4 °C 1012.8 hPa ESE 9.3 km/h 9.3 km/h 61 % 0.0 mm
14:16 23.5 °C 15.3 °C 1012.8 hPa East 19.5 km/h 19.5 km/h 60 % 0.0 mm
14:21 23.6 °C 15.4 °C 1012.8 hPa ESE 11.1 km/h 11.1 km/h 60 % 0.0 mm
14:26 23.8 °C 15.6 °C 1012.8 hPa ESE 13.7 km/h 13.7 km/h 60 % 0.0 mm
14:31 24.3 °C 15.5 °C 1012.8 hPa SW 11.1 km/h 11.1 km/h 58 % 0.0 mm
14:36 24.0 °C 15.2 °C 1011.7 hPa NE 16.7 km/h 16.7 km/h 58 % 0.0 mm
14:41 24.0 °C 15.5 °C 1011.7 hPa SE 15.8 km/h 15.8 km/h 59 % 0.0 mm
14:46 24.0 °C 14.9 °C 1011.7 hPa ESE 16.7 km/h 16.7 km/h 57 % 0.0 mm
14:51 24.2 °C 15.2 °C 1011.7 hPa East 15.8 km/h 15.8 km/h 57 % 0.0 mm
14:56 23.9 °C 14.6 °C 1011.7 hPa ENE 14.8 km/h 14.8 km/h 56 % 0.0 mm
15:01 23.9 °C 14.6 °C 1011.7 hPa SE 14.8 km/h 14.8 km/h 56 % 0.0 mm
15:06 24.3 °C 14.7 °C 1011.7 hPa East 11.1 km/h 11.1 km/h 55 % 0.0 mm
15:11 24.4 °C 14.5 °C 1011.7 hPa ESE 14.8 km/h 14.8 km/h 54 % 0.0 mm
15:16 24.6 °C 14.4 °C 1011.7 hPa SSE 16.7 km/h 16.7 km/h 53 % 0.0 mm
15:21 24.6 °C 14.4 °C 1010.7 hPa ESE 14.8 km/h 14.8 km/h 53 % 0.0 mm
15:26 24.3 °C 13.8 °C 1010.7 hPa East 16.7 km/h 16.7 km/h 52 % 0.0 mm
15:31 24.2 °C 13.7 °C 1010.7 hPa ESE 9.5 km/h 9.5 km/h 52 % 0.0 mm
15:36 24.4 °C 13.9 °C 1011.7 hPa South 14.8 km/h 14.8 km/h 52 % 0.0 mm
15:41 24.3 °C 14.1 °C 1011.7 hPa SE 9.3 km/h 9.5 km/h 53 % 0.0 mm
15:46 24.6 °C 14.1 °C 1011.7 hPa East 14.8 km/h 14.8 km/h 52 % 0.0 mm
15:51 24.6 °C 13.8 °C 1011.7 hPa ENE 14.8 km/h 14.8 km/h 51 % 0.0 mm
15:56 24.5 °C 13.1 °C 1011.7 hPa ESE 20.4 km/h 20.4 km/h 49 % 0.0 mm
16:01 24.6 °C 13.2 °C 1011.7 hPa ESE 16.7 km/h 16.7 km/h 49 % 0.0 mm
16:06 24.5 °C 12.8 °C 1012.8 hPa ESE 18.5 km/h 18.5 km/h 48 % 0.0 mm
16:11 24.7 °C 12.9 °C 1012.8 hPa ESE 14.8 km/h 14.8 km/h 48 % 0.0 mm
16:16 24.9 °C 13.1 °C 1012.8 hPa ESE 14.8 km/h 14.8 km/h 48 % 0.0 mm
16:21 24.9 °C 13.1 °C 1011.7 hPa SE 13.0 km/h 13.0 km/h 48 % 0.0 mm
16:26 25.1 °C 13.0 °C 1011.7 hPa SSE 20.4 km/h 20.4 km/h 47 % 0.0 mm
16:31 25.4 °C 13.3 °C 1011.7 hPa ESE 14.8 km/h 14.8 km/h 47 % 0.0 mm
16:36 25.8 °C 13.6 °C 1011.7 hPa ENE 5.6 km/h 5.6 km/h 47 % 0.0 mm
16:41 25.3 °C 12.8 °C 1011.7 hPa East 13.0 km/h 13.0 km/h 46 % 0.0 mm
16:46 25.0 °C 12.2 °C 1011.7 hPa ENE 16.7 km/h 16.7 km/h 45 % 0.0 mm
16:51 24.8 °C 12.4 °C 1010.7 hPa ESE 11.1 km/h 11.1 km/h 46 % 0.0 mm
16:52 24.9 °C 12.5 °C 1010.7 hPa ESE 11.1 km/h 11.1 km/h 46 % 0.0 mm
16:57 25.1 °C 12.3 °C 1010.7 hPa ESE 14.8 km/h 14.8 km/h 45 % 0.0 mm
17:02 24.8 °C 12.4 °C 1010.7 hPa East 18.5 km/h 18.5 km/h 46 % 0.0 mm
17:07 24.8 °C 12.1 °C 1010.7 hPa ESE 16.7 km/h 16.7 km/h 45 % 0.0 mm
17:12 24.9 °C 12.2 °C 1010.7 hPa ESE 18.5 km/h 18.5 km/h 45 % 0.0 mm
17:17 25.0 °C 11.9 °C 1010.7 hPa ESE 19.8 km/h 19.8 km/h 44 % 0.0 mm
17:22 24.6 °C 11.9 °C 1010.7 hPa SE 20.4 km/h 20.4 km/h 45 % 0.0 mm
17:27 24.4 °C 12.3 °C 1010.7 hPa ESE 13.0 km/h 13.0 km/h 47 % 0.0 mm
17:32 24.4 °C 12.3 °C 1010.7 hPa ENE 20.6 km/h 20.6 km/h 47 % 0.0 mm
17:37 24.3 °C 12.3 °C 1010.0 hPa ESE 16.7 km/h 16.7 km/h 47 % 0.0 mm
17:42 24.3 °C 12.3 °C 1010.0 hPa ESE 13.0 km/h 13.0 km/h 47 % 0.0 mm
17:47 24.3 °C 12.3 °C 1010.0 hPa East 11.1 km/h 11.1 km/h 47 % 0.0 mm
17:52 24.3 °C 12.6 °C 1010.7 hPa SSE 13.0 km/h 13.0 km/h 48 % 0.0 mm
17:57 24.3 °C 12.6 °C 1010.7 hPa ESE 13.0 km/h 13.0 km/h 48 % 0.0 mm
18:02 24.5 °C 12.8 °C 1010.7 hPa South 7.4 km/h 7.4 km/h 48 % 0.0 mm
18:07 24.4 °C 12.7 °C 1010.0 hPa SSE 7.9 km/h 8.7 km/h 48 % 0.0 mm
18:12 24.0 °C 12.6 °C 1010.0 hPa ENE 14.8 km/h 14.8 km/h 49 % 0.0 mm
18:17 24.0 °C 12.6 °C 1010.0 hPa ENE 9.3 km/h 9.3 km/h 49 % 0.0 mm
18:22 23.8 °C 12.4 °C 1010.0 hPa East 13.0 km/h 13.0 km/h 49 % 0.0 mm
18:27 23.7 °C 12.7 °C 1010.0 hPa ESE 13.0 km/h 13.0 km/h 50 % 0.0 mm
18:32 23.5 °C 12.5 °C 1010.0 hPa SE 13.0 km/h 13.0 km/h 50 % 0.0 mm
18:37 23.6 °C 12.6 °C 1010.0 hPa East 12.6 km/h 12.6 km/h 50 % 0.0 mm
18:42 23.4 °C 12.4 °C 1010.0 hPa ESE 13.0 km/h 13.0 km/h 50 % 0.0 mm
18:47 23.3 °C 12.3 °C 1010.0 hPa ESE 10.0 km/h 10.0 km/h 50 % 0.0 mm
18:52 23.3 °C 12.3 °C 1010.0 hPa East 14.8 km/h 14.8 km/h 50 % 0.0 mm
18:57 23.2 °C 12.2 °C 1010.0 hPa ESE 11.1 km/h 11.1 km/h 50 % 0.0 mm
19:02 23.2 °C 12.5 °C 1010.0 hPa ESE 13.7 km/h 13.7 km/h 51 % 0.0 mm
19:07 23.1 °C 12.4 °C 1009.0 hPa East 7.6 km/h 7.6 km/h 51 % 0.0 mm
19:12 23.1 °C 12.7 °C 1009.0 hPa ESE 9.3 km/h 9.3 km/h 52 % 0.0 mm
19:15 19.3 °C 12.1 °C 1014.8 hPa Calm     63 % 0.0 mm
19:17 23.0 °C 12.6 °C 1009.0 hPa ESE 9.3 km/h 9.3 km/h 52 % 0.0 mm
19:22 23.0 °C 12.6 °C 1010.0 hPa SSE 10.0 km/h 10.0 km/h 52 % 0.0 mm
19:25 19.3 °C 12.1 °C 1010.0 hPa Calm     63 % 0.0 mm
19:27 22.8 °C 12.7 °C 1010.0 hPa ESE 11.1 km/h 11.1 km/h 53 % 0.0 mm
19:32 22.8 °C 12.7 °C 1010.0 hPa ESE 9.3 km/h 9.3 km/h 53 % 0.0 mm
19:35 19.1 °C 11.9 °C 1010.0 hPa Calm     63 % 0.0 mm
19:37 22.7 °C 12.9 °C 1010.0 hPa East 11.1 km/h 11.1 km/h 54 % 0.0 mm
19:38 22.7 °C 12.9 °C 1010.0 hPa ESE 9.3 km/h 9.3 km/h 54 % 0.0 mm
19:43 22.6 °C 12.8 °C 1010.0 hPa ESE 9.7 km/h 9.7 km/h 54 % 0.0 mm
19:45 19.0 °C 11.8 °C 1010.0 hPa Calm   1.6 km/h 63 % 0.0 mm
19:48 22.5 °C 13.0 °C 1010.0 hPa SE 7.4 km/h 7.4 km/h 55 % 0.0 mm
19:53 22.4 °C 12.9 °C 1010.0 hPa ESE 9.3 km/h 9.3 km/h 55 % 0.0 mm
19:55 19.0 °C 11.8 °C 1010.0 hPa Calm     63 % 0.0 mm
19:58 22.3 °C 12.8 °C 1010.0 hPa ESE 7.9 km/h 7.9 km/h 55 % 0.0 mm
20:03 22.3 °C 12.8 °C 1010.0 hPa East 5.0 km/h 5.0 km/h 55 % 0.0 mm
20:05 19.0 °C 11.8 °C 1010.0 hPa Calm     63 % 0.0 mm
20:08 22.2 °C 12.7 °C 1010.0 hPa ESE 7.4 km/h 7.4 km/h 55 % 0.0 mm
20:13 22.1 °C 12.6 °C 1010.0 hPa ESE 3.7 km/h 3.7 km/h 55 % 0.0 mm
20:15 19.2 °C 12.0 °C 1010.0 hPa SW 1.6 km/h 3.2 km/h 63 % 0.0 mm
20:18 22.0 °C 12.8 °C 1010.0 hPa ESE 6.9 km/h 6.9 km/h 56 % 0.0 mm
20:23 22.0 °C 12.6 °C 1010.0 hPa East 3.7 km/h 3.7 km/h 55 % 0.0 mm
20:25 19.3 °C 12.3 °C 1009.0 hPa Calm   1.6 km/h 64 % 0.0 mm
20:28 21.8 °C 12.6 °C 1010.0 hPa SW 3.7 km/h 3.7 km/h 56 % 0.0 mm
20:33 21.6 °C 12.7 °C 1010.0 hPa SSW 1.9 km/h   57 % 0.0 mm
20:35 19.3 °C 12.3 °C 1009.0 hPa Calm   1.6 km/h 64 % 0.0 mm
20:38 21.5 °C 12.6 °C 1010.0 hPa Calm     57 % 0.0 mm
20:43 21.4 °C 12.5 °C 1010.0 hPa Calm     57 % 0.0 mm
20:45 19.1 °C 12.1 °C 1009.0 hPa WSW 1.6 km/h 3.2 km/h 64 % 0.0 mm
20:48 21.3 °C 12.4 °C 1010.0 hPa Calm     57 % 0.0 mm
20:53 21.2 °C 12.3 °C 1010.0 hPa Calm     57 % 0.0 mm
20:55 18.9 °C 12.2 °C 1008.0 hPa SW 3.2 km/h 3.2 km/h 65 % 0.0 mm
20:58 21.2 °C 12.3 °C 1010.0 hPa Calm     57 % 0.0 mm
21:03 21.0 °C 12.2 °C 1010.0 hPa Calm     57 % 0.0 mm
21:05 18.8 °C 12.3 °C 1008.0 hPa Calm   1.6 km/h 66 % 0.0 mm
21:08 21.0 °C 12.2 °C 1010.0 hPa Calm     57 % 0.0 mm
21:13 20.8 °C 12.2 °C 1010.0 hPa SW 3.9 km/h 3.9 km/h 58 % 0.0 mm
21:15 18.6 °C 12.1 °C 1008.0 hPa Calm   1.6 km/h 66 % 0.0 mm
21:18 20.6 °C 12.1 °C 1010.0 hPa SSW 3.7 km/h 3.7 km/h 58 % 0.0 mm
21:23 20.5 °C 11.9 °C 1010.0 hPa West 3.7 km/h 3.7 km/h 58 % 0.0 mm
21:25 18.6 °C 12.1 °C 1008.0 hPa WSW 1.6 km/h 3.2 km/h 66 % 0.0 mm
21:28 20.4 °C 11.8 °C 1010.0 hPa SW 2.6 km/h   58 % 0.0 mm
21:33 20.3 °C 11.8 °C 1010.0 hPa SW 3.7 km/h   58 % 0.0 mm
21:35 18.6 °C 12.3 °C 1008.0 hPa NE 1.6 km/h 3.2 km/h 67 % 0.0 mm
21:38 20.2 °C 11.7 °C 1010.0 hPa WSW 1.9 km/h   58 % 0.0 mm
21:43 20.2 °C 11.7 °C 1010.0 hPa Calm     58 % 0.0 mm
21:45 18.6 °C 12.3 °C 1007.0 hPa Calm   3.2 km/h 67 % 0.0 mm
21:48 20.1 °C 11.6 °C 1010.0 hPa Calm     58 % 0.0 mm
21:53 20.0 °C 11.7 °C 1010.0 hPa WSW 1.9 km/h   59 % 0.0 mm
21:55 18.6 °C 12.6 °C 1008.0 hPa Calm   3.2 km/h 68 % 0.0 mm
21:58 20.0 °C 11.7 °C 1010.0 hPa Calm     59 % 0.0 mm
22:03 19.9 °C 11.9 °C 1010.0 hPa Calm     60 % 0.0 mm
22:05 18.7 °C 12.9 °C 1008.0 hPa Calm     69 % 0.0 mm
22:08 19.8 °C 11.8 °C 1010.0 hPa Calm     60 % 0.0 mm
22:13 19.7 °C 11.7 °C 1010.0 hPa Calm     60 % 0.0 mm
22:15 18.7 °C 12.9 °C 1007.0 hPa NNE 1.6 km/h 3.2 km/h 69 % 0.0 mm
22:18 19.7 °C 11.7 °C 1010.0 hPa Calm     60 % 0.0 mm
22:23 19.6 °C 11.6 °C 1010.0 hPa Calm     60 % 0.0 mm
22:25 18.7 °C 13.1 °C 1007.0 hPa NNE 1.6 km/h 3.2 km/h 70 % 0.0 mm
22:28 19.6 °C 11.6 °C 1010.0 hPa NW 3.7 km/h 3.7 km/h 60 % 0.0 mm
22:33 19.7 °C 11.7 °C 1010.0 hPa NW 1.9 km/h 1.9 km/h 60 % 0.0 mm
22:35 18.6 °C 13.0 °C 1007.0 hPa NNE 1.6 km/h 1.6 km/h 70 % 0.0 mm
22:38 19.7 °C 11.7 °C 1010.0 hPa Calm     60 % 0.0 mm
22:43 19.7 °C 11.9 °C 1010.0 hPa Calm     61 % 0.0 mm
22:45 18.6 °C 13.0 °C 1007.0 hPa NNE 1.6 km/h 4.8 km/h 70 % 0.0 mm
22:48 19.7 °C 11.9 °C 1010.0 hPa Calm     61 % 0.0 mm
22:53 19.6 °C 11.9 °C 1010.0 hPa Calm     61 % 0.0 mm
22:55 18.5 °C 13.2 °C 1006.0 hPa NE 4.8 km/h 6.4 km/h 71 % 0.0 mm
22:58 19.7 °C 11.9 °C 1010.0 hPa Calm     61 % 0.0 mm
23:03 19.7 °C 11.7 °C 1010.0 hPa Calm     60 % 0.0 mm
23:05 18.4 °C 13.1 °C 1006.0 hPa NE 4.8 km/h 6.4 km/h 71 % 0.0 mm
23:08 19.8 °C 12.1 °C 1010.0 hPa Calm     61 % 0.0 mm
23:13 19.9 °C 11.9 °C 1010.0 hPa NW 2.3 km/h 2.3 km/h 60 % 0.0 mm
23:15 18.4 °C 13.3 °C 1006.0 hPa NNE 3.2 km/h 6.4 km/h 72 % 0.0 mm
23:18 20.0 °C 11.7 °C 1010.0 hPa NW 1.9 km/h 1.9 km/h 59 % 0.0 mm
23:23 20.0 °C 12.0 °C 1010.0 hPa Calm     60 % 0.0 mm
23:25 18.3 °C 13.2 °C 1006.0 hPa NE 4.8 km/h 6.4 km/h 72 % 0.0 mm
23:28 20.0 °C 12.0 °C 1010.0 hPa Calm     60 % 0.0 mm
23:33 20.0 °C 12.0 °C 1010.0 hPa Calm     60 % 0.0 mm
23:35 18.4 °C 13.4 °C 1006.0 hPa NNE 1.6 km/h 6.4 km/h 73 % 0.0 mm
23:38 20.0 °C 12.0 °C 1009.0 hPa Calm     60 % 0.0 mm
23:43 19.9 °C 12.2 °C 1009.0 hPa SSW 1.9 km/h 2.3 km/h 61 % 0.0 mm
23:45 18.4 °C 13.4 °C 1005.0 hPa NNW 1.6 km/h 4.8 km/h 73 % 0.0 mm
23:48 19.6 °C 11.9 °C 1009.0 hPa SSW 1.9 km/h 1.9 km/h 61 % 0.0 mm
23:53 19.4 °C 11.7 °C 1010.0 hPa SW 3.2 km/h   61 % 0.0 mm
23:55 18.4 °C 13.4 °C 1006.0 hPa NNW 1.6 km/h 3.2 km/h 73 % 0.0 mm
23:58 19.3 °C 11.6 °C 1010.0 hPa SW 2.3 km/h 2.3 km/h 61 % 0.0 mm
Meteo Sesrovires
Elogis d' Weather Underground - 3.5 mb

Guio original per  Jim McMurry - jmcmurry@mwt.net Adaptat per a la plantilla per  Wim van der Kuil - Leuven-Template.eu

Trobareu la nostra informacio del temps tambe a:

Weather Underground

AWEKAS